createdAt,value
2019-03-01T00:02:03.307Z,69.27
2019-03-01T00:05:00.449Z,56.70
2019-03-01T00:07:57.572Z,60.20
2019-03-01T00:11:05.644Z,75.90
2019-03-01T00:14:13.734Z,72.73
2019-03-01T00:17:21.843Z,63.67
2019-03-01T00:20:13.736Z,53.30
2019-03-01T00:23:21.881Z,62.67
2019-03-01T00:26:29.934Z,50.60
2019-03-01T00:29:38.065Z,44.83
2019-03-01T00:32:46.159Z,52.03
2019-03-01T00:36:14.904Z,51.80
2019-03-01T00:39:07.938Z,41.67
2019-03-01T00:42:17.621Z,46.77
2019-03-01T00:44:48.391Z,45.78
2019-03-01T00:47:25.000Z,37.83
2019-03-01T00:49:54.512Z,38.20
2019-03-01T00:52:24.177Z,40.98
2019-03-01T00:54:53.747Z,49.40
2019-03-01T00:57:23.329Z,35.33
2019-03-01T00:59:52.925Z,38.48
2019-03-01T01:02:22.473Z,40.43
2019-03-01T01:04:52.192Z,41.60
2019-03-01T01:07:21.903Z,37.43
2019-03-01T01:09:51.430Z,41.75
2019-03-01T01:15:10.200Z,38.37
2019-03-01T01:17:40.436Z,39.25
2019-03-01T01:20:10.435Z,48.28
2019-03-01T01:22:40.201Z,42.50
2019-03-01T01:25:10.347Z,51.23
2019-03-01T01:27:41.112Z,41.50
2019-03-01T01:30:17.346Z,36.13
2019-03-01T01:32:46.953Z,43.70
2019-03-01T01:35:16.509Z,39.17
2019-03-01T01:37:46.097Z,35.45
2019-03-01T01:40:15.601Z,40.73
2019-03-01T01:42:45.183Z,43.00
2019-03-01T01:45:14.782Z,42.90
2019-03-01T01:47:44.314Z,43.03
2019-03-01T01:50:14.018Z,40.40
2019-03-01T01:52:43.622Z,33.87
2019-03-01T01:55:13.166Z,41.42
2019-03-01T01:57:42.796Z,37.27
2019-03-01T02:03:14.282Z,48.03
2019-03-01T02:05:43.900Z,45.57
2019-03-01T02:08:13.458Z,45.70
2019-03-01T02:10:43.036Z,35.93
2019-03-01T02:13:14.186Z,43.10
2019-03-01T02:15:43.693Z,40.03
2019-03-01T02:18:13.896Z,37.40
2019-03-01T02:20:43.420Z,41.13
2019-03-01T02:23:13.181Z,44.93
2019-03-01T02:25:42.921Z,41.97
2019-03-01T02:28:12.477Z,50.17
2019-03-01T02:30:42.062Z,47.53
2019-03-01T02:33:11.617Z,39.43
2019-03-01T02:35:41.578Z,38.13
2019-03-01T02:38:11.165Z,47.30
2019-03-01T02:40:40.675Z,38.27
2019-03-01T02:43:10.839Z,42.98
2019-03-01T02:45:40.605Z,45.25
2019-03-01T02:48:10.660Z,40.60
2019-03-01T02:50:40.768Z,39.35
2019-03-01T02:53:10.683Z,48.15
2019-03-01T02:55:40.829Z,42.62
2019-03-01T02:58:10.746Z,43.53
2019-03-01T03:00:40.921Z,45.92
2019-03-01T03:03:10.758Z,40.90
2019-03-01T03:08:45.673Z,38.40
2019-03-01T03:11:15.192Z,44.53
2019-03-01T03:13:44.784Z,40.90
2019-03-01T03:16:14.353Z,35.87
2019-03-01T03:18:44.002Z,39.27
2019-03-01T03:21:13.491Z,37.73
2019-03-01T03:23:43.089Z,41.30
2019-03-01T03:26:12.700Z,42.27
2019-03-01T03:28:42.233Z,40.20
2019-03-01T03:31:11.883Z,37.70
2019-03-01T03:33:41.667Z,45.43
2019-03-01T03:36:11.182Z,36.57
2019-03-01T03:38:40.850Z,35.48
2019-03-01T03:41:11.091Z,38.83
2019-03-01T03:43:40.898Z,45.03
2019-03-01T03:46:10.949Z,44.60
2019-03-01T03:48:40.891Z,45.38
2019-03-01T03:51:11.559Z,36.13
2019-03-01T03:53:41.617Z,39.67
2019-03-01T03:56:11.222Z,43.00
2019-03-01T03:58:41.113Z,44.48
2019-03-01T04:01:11.341Z,47.20
2019-03-01T04:03:41.219Z,41.48
2019-03-01T04:06:11.136Z,44.23
2019-03-01T04:08:41.197Z,41.63
2019-03-01T04:11:11.295Z,39.18
2019-03-01T04:13:41.155Z,44.07
2019-03-01T04:16:11.395Z,42.25
2019-03-01T04:18:41.160Z,44.93
2019-03-01T04:21:11.500Z,47.05
2019-03-01T04:24:00.178Z,52.90
2019-03-01T04:26:35.419Z,41.80
2019-03-01T04:29:04.996Z,49.27
2019-03-01T04:31:53.664Z,41.80
2019-03-01T04:34:42.244Z,40.93
2019-03-01T04:37:11.759Z,42.17
2019-03-01T04:40:00.426Z,44.03
2019-03-01T04:42:29.968Z,45.15
2019-03-01T04:44:59.506Z,45.97
2019-03-01T04:47:29.179Z,47.75
2019-03-01T04:49:58.733Z,39.40
2019-03-01T04:52:47.510Z,54.33
2019-03-01T04:55:37.551Z,54.53
2019-03-01T04:58:08.695Z,48.20
2019-03-01T05:00:38.241Z,49.00
2019-03-01T05:03:07.839Z,45.95
2019-03-01T05:05:37.473Z,46.00
2019-03-01T05:08:07.029Z,51.50
2019-03-01T05:10:36.568Z,55.77
2019-03-01T05:13:06.135Z,47.83
2019-03-01T05:15:35.687Z,43.80
2019-03-01T05:18:05.280Z,49.60
2019-03-01T05:20:34.831Z,45.08
2019-03-01T05:23:04.420Z,43.17
2019-03-01T05:25:33.968Z,37.40
2019-03-01T05:28:03.573Z,36.97
2019-03-01T05:30:33.124Z,40.87
2019-03-01T05:33:02.684Z,57.50
2019-03-01T05:35:32.215Z,36.40
2019-03-01T05:40:42.839Z,37.57
2019-03-01T05:43:12.426Z,39.70
2019-03-01T05:45:42.066Z,47.98
2019-03-01T05:48:11.617Z,50.35
2019-03-01T05:50:41.272Z,46.23
2019-03-01T05:53:10.820Z,44.38
2019-03-01T05:55:40.348Z,45.88
2019-03-01T05:58:48.483Z,42.67
2019-03-01T06:01:40.005Z,39.00
2019-03-01T06:04:48.107Z,44.47
2019-03-01T06:07:56.177Z,37.63
2019-03-01T06:10:33.305Z,37.90
2019-03-01T06:13:41.384Z,42.50
2019-03-01T06:16:37.237Z,39.23
2019-03-01T06:19:45.309Z,44.50
2019-03-01T06:22:54.655Z,38.67
2019-03-01T06:25:56.677Z,37.75
2019-03-01T06:28:49.824Z,36.73
2019-03-01T06:31:57.933Z,39.37
2019-03-01T06:35:06.011Z,46.50
2019-03-01T06:38:22.264Z,32.57
2019-03-01T06:41:32.583Z,38.10
2019-03-01T06:44:40.644Z,37.17
2019-03-01T06:47:41.653Z,40.20
2019-03-01T06:50:30.219Z,47.90
2019-03-01T06:52:59.805Z,44.83
2019-03-01T06:55:45.179Z,35.13
2019-03-01T06:58:35.399Z,33.40
2019-03-01T07:04:25.403Z,36.05
2019-03-01T07:06:54.932Z,35.80
2019-03-01T07:09:24.482Z,40.27
2019-03-01T07:11:54.035Z,43.07
2019-03-01T07:14:23.552Z,33.80
2019-03-01T07:17:12.180Z,36.23
2019-03-01T07:19:41.749Z,39.57
2019-03-01T07:22:11.259Z,38.02
2019-03-01T07:24:40.878Z,36.35
2019-03-01T07:27:12.268Z,34.18
2019-03-01T07:29:47.566Z,37.80
2019-03-01T07:32:17.139Z,37.15
2019-03-01T07:34:46.892Z,34.63
2019-03-01T07:37:16.441Z,33.28
2019-03-01T07:39:46.026Z,40.00
2019-03-01T07:42:15.571Z,42.83
2019-03-01T07:44:45.350Z,34.20
2019-03-01T07:47:14.980Z,32.77
2019-03-01T07:50:03.594Z,38.27
2019-03-01T07:52:33.162Z,30.85
2019-03-01T07:55:02.713Z,29.60
2019-03-01T07:57:32.316Z,28.33
2019-03-01T08:00:02.390Z,40.55
2019-03-01T08:02:35.983Z,42.97
2019-03-01T08:05:23.927Z,39.00
2019-03-01T08:07:56.348Z,44.33
2019-03-01T08:10:43.901Z,42.60
2019-03-01T08:13:14.749Z,42.65
2019-03-01T08:16:16.548Z,47.87
2019-03-01T08:18:47.610Z,45.53
2019-03-01T08:21:24.261Z,54.90
2019-03-01T08:23:53.803Z,46.35
2019-03-01T08:26:23.360Z,41.07
2019-03-01T08:28:54.702Z,44.57
2019-03-01T08:31:43.254Z,53.70
2019-03-01T08:34:14.364Z,53.53
2019-03-01T08:37:03.127Z,54.03
2019-03-01T08:39:32.679Z,60.10
2019-03-01T08:42:02.203Z,56.77
2019-03-01T08:44:31.801Z,60.97
2019-03-01T08:47:01.360Z,55.20
2019-03-01T08:49:31.182Z,60.43
2019-03-01T08:52:01.448Z,63.00
2019-03-01T08:54:31.751Z,60.58
2019-03-01T08:57:22.712Z,64.30
2019-03-01T08:59:57.253Z,63.17
2019-03-01T09:02:26.827Z,57.93
2019-03-01T09:04:56.396Z,79.67
2019-03-01T09:07:27.214Z,71.70
2019-03-01T09:10:02.713Z,58.50
2019-03-01T09:12:32.285Z,76.00
2019-03-01T09:15:04.468Z,74.30
2019-03-01T09:17:38.298Z,75.50
2019-03-01T09:20:09.513Z,78.83
2019-03-01T09:22:39.074Z,69.93
2019-03-01T09:25:09.044Z,65.78
2019-03-01T09:30:27.231Z,59.80
2019-03-01T09:32:56.795Z,75.03
2019-03-01T09:35:45.553Z,66.87
2019-03-01T09:38:15.236Z,61.37
2019-03-01T09:40:44.789Z,63.95
2019-03-01T09:43:14.391Z,64.17
2019-03-01T09:45:45.727Z,74.27
2019-03-01T09:48:34.645Z,70.70
2019-03-01T09:51:16.695Z,69.00
2019-03-01T09:53:46.199Z,64.07
2019-03-01T09:56:15.745Z,74.80
2019-03-01T09:58:45.319Z,71.03
2019-03-01T10:01:16.795Z,64.97
2019-03-01T10:03:48.011Z,67.83
2019-03-01T10:06:17.596Z,64.37
2019-03-01T10:08:47.126Z,57.07
2019-03-01T10:11:16.697Z,56.40
2019-03-01T10:13:46.301Z,54.13
2019-03-01T10:16:15.928Z,58.48
2019-03-01T10:18:45.480Z,57.27
2019-03-01T10:21:15.031Z,55.52
2019-03-01T10:24:03.695Z,67.27
2019-03-01T10:26:33.288Z,53.90
2019-03-01T10:29:02.927Z,45.70
2019-03-01T10:31:32.532Z,44.03
2019-03-01T10:34:02.945Z,53.40
2019-03-01T10:36:32.480Z,48.80
2019-03-01T10:39:02.477Z,36.87
2019-03-01T10:41:33.852Z,48.03
2019-03-01T10:44:03.511Z,54.03
2019-03-01T10:46:34.780Z,50.40
2019-03-01T10:49:04.347Z,37.03
2019-03-01T10:51:34.024Z,33.57
2019-03-01T10:54:03.562Z,39.03
2019-03-01T10:56:33.143Z,36.17
2019-03-01T10:59:02.668Z,40.77
2019-03-01T11:01:32.324Z,36.27
2019-03-01T11:07:15.473Z,35.15
2019-03-01T11:09:45.072Z,37.88
2019-03-01T11:12:14.617Z,36.53
2019-03-01T11:15:03.467Z,31.70
2019-03-01T11:17:33.092Z,32.65
2019-03-01T11:20:02.932Z,29.42
2019-03-01T11:22:34.125Z,36.53
2019-03-01T11:25:03.950Z,25.72
2019-03-01T11:27:34.452Z,29.95
2019-03-01T11:30:04.161Z,22.52
2019-03-01T11:32:33.751Z,27.80
2019-03-01T11:35:15.593Z,24.53
2019-03-01T11:37:45.319Z,19.50
2019-03-01T11:40:17.618Z,16.40
2019-03-01T11:42:47.283Z,22.50
2019-03-01T11:45:17.826Z,18.95
2019-03-01T11:47:47.481Z,24.10
2019-03-01T11:50:19.174Z,19.57
2019-03-01T11:52:48.844Z,17.63
2019-03-01T11:58:07.177Z,20.57
2019-03-01T12:00:36.949Z,28.87
2019-03-01T12:03:06.706Z,22.13
2019-03-01T12:05:36.426Z,27.67
2019-03-01T12:08:06.450Z,26.17
2019-03-01T12:10:36.311Z,27.22
2019-03-01T12:13:06.118Z,25.37
2019-03-01T12:15:54.893Z,23.33
2019-03-01T12:21:06.092Z,28.83
2019-03-01T12:23:35.626Z,23.97
2019-03-01T12:26:05.166Z,24.40
2019-03-01T12:28:34.713Z,20.70
2019-03-01T12:31:04.347Z,32.80
2019-03-01T12:33:33.901Z,31.00
2019-03-01T12:36:15.614Z,29.60
2019-03-01T12:38:45.369Z,26.53
2019-03-01T12:41:15.243Z,24.00
2019-03-01T12:43:45.319Z,30.88
2019-03-01T12:46:15.340Z,23.20
2019-03-01T12:48:45.304Z,20.05
2019-03-01T12:51:15.326Z,21.73
2019-03-01T12:53:45.348Z,19.73
2019-03-01T12:56:15.333Z,19.85
2019-03-01T12:58:44.969Z,14.43
2019-03-01T13:01:15.532Z,13.20
2019-03-01T13:03:45.103Z,16.20
2019-03-01T13:06:35.382Z,22.40
2019-03-01T13:09:52.610Z,19.37
2019-03-01T13:12:22.368Z,16.42
2019-03-01T13:15:13.807Z,16.37
2019-03-01T13:17:49.998Z,16.37
2019-03-01T13:20:26.750Z,16.63
2019-03-01T13:22:56.314Z,16.12
2019-03-01T13:25:29.448Z,14.63
2019-03-01T13:28:04.038Z,17.10
2019-03-01T13:30:35.795Z,18.23
2019-03-01T13:33:13.879Z,17.63
2019-03-01T13:35:55.779Z,20.00
2019-03-01T13:38:25.375Z,22.48
2019-03-01T13:41:14.154Z,23.40
2019-03-01T13:43:43.684Z,21.60
2019-03-01T13:46:18.461Z,25.10
2019-03-01T13:48:50.833Z,16.47
2019-03-01T13:51:38.318Z,15.60
2019-03-01T13:54:26.937Z,15.97
2019-03-01T13:56:56.434Z,14.80
2019-03-01T13:59:25.999Z,14.70
2019-03-01T14:01:55.574Z,19.43
2019-03-01T14:04:25.101Z,18.63
2019-03-01T14:06:54.642Z,12.83
2019-03-01T14:09:27.254Z,14.80
2019-03-01T14:12:14.747Z,17.67
2019-03-01T14:14:44.336Z,21.37
2019-03-01T14:17:14.125Z,31.97
2019-03-01T14:19:43.647Z,17.13
2019-03-01T14:22:13.995Z,17.63
2019-03-01T14:24:50.066Z,17.97
2019-03-01T14:27:19.626Z,17.00
2019-03-01T14:29:53.633Z,16.73
2019-03-01T14:32:25.606Z,18.37
2019-03-01T14:34:55.342Z,16.62
2019-03-01T14:37:24.909Z,18.03
2019-03-01T14:40:13.745Z,14.93
2019-03-01T14:42:46.484Z,15.40
2019-03-01T14:45:25.562Z,12.73
2019-03-01T14:53:43.310Z,18.13
2019-03-01T14:56:21.495Z,17.40
2019-03-01T14:59:20.539Z,17.32
2019-03-01T15:02:14.990Z,20.90
2019-03-01T15:04:44.523Z,23.73
2019-03-01T15:07:14.036Z,17.47
2019-03-01T15:09:43.598Z,25.43
2019-03-01T15:12:19.678Z,21.97
2019-03-01T15:14:50.843Z,22.50
2019-03-01T15:17:21.819Z,19.75
2019-03-01T15:20:11.855Z,16.03
2019-03-01T15:22:45.596Z,16.20
2019-03-01T15:25:33.445Z,14.30
2019-03-01T15:28:02.952Z,17.93
2019-03-01T15:33:14.150Z,19.90
2019-03-01T15:35:44.359Z,18.17
2019-03-01T15:38:13.873Z,24.40
2019-03-01T15:40:43.445Z,14.90
2019-03-01T15:43:13.031Z,27.20
2019-03-01T15:45:54.234Z,19.20
2019-03-01T15:48:23.754Z,16.63
2019-03-01T15:50:53.285Z,16.77
2019-03-01T15:53:24.932Z,20.07
2019-03-01T15:56:02.164Z,17.93
2019-03-01T15:58:36.325Z,12.97
2019-03-01T16:04:10.049Z,16.60
2019-03-01T16:06:39.589Z,21.48
2019-03-01T16:09:33.171Z,12.70
2019-03-01T16:12:02.714Z,16.57
2019-03-01T16:14:32.299Z,14.70
2019-03-01T16:20:05.544Z,13.83
2019-03-01T16:22:35.156Z,16.60
2019-03-01T16:25:07.233Z,13.20
2019-03-01T16:27:36.863Z,12.97
2019-03-01T16:30:08.530Z,15.10
2019-03-01T16:35:43.011Z,9.80
2019-03-01T16:38:12.472Z,9.67
2019-03-01T16:40:41.997Z,13.53
2019-03-01T16:43:11.532Z,14.80
2019-03-01T16:45:41.176Z,18.07
2019-03-01T16:48:13.637Z,10.20
2019-03-01T16:50:47.187Z,7.97
2019-03-01T16:53:16.720Z,8.03
2019-03-01T16:55:46.253Z,8.30
2019-03-01T16:58:15.757Z,8.58
2019-03-01T17:00:45.319Z,7.23
2019-03-01T17:03:17.868Z,18.67
2019-03-01T17:05:52.071Z,7.57
2019-03-01T17:08:21.595Z,7.15
2019-03-01T17:10:51.793Z,9.83
2019-03-01T17:13:41.450Z,7.47
2019-03-01T17:16:11.018Z,15.43
2019-03-01T17:18:40.539Z,16.90
2019-03-01T17:21:29.172Z,13.43
2019-03-01T17:23:58.674Z,13.07
2019-03-01T17:26:29.970Z,11.33
2019-03-01T17:29:18.590Z,15.23
2019-03-01T17:31:48.152Z,11.85
2019-03-01T17:34:17.684Z,11.73
2019-03-01T17:36:49.870Z,8.33
2019-03-01T17:39:37.556Z,13.60
2019-03-01T17:42:07.080Z,10.53
2019-03-01T17:44:36.618Z,9.40
2019-03-01T17:47:09.670Z,6.73
2019-03-01T17:49:58.822Z,6.57
2019-03-01T17:58:05.395Z,9.50
2019-03-01T18:03:20.978Z,13.47
2019-03-01T18:05:50.532Z,4.77
2019-03-01T18:08:20.103Z,5.13
2019-03-01T18:10:49.667Z,7.03
2019-03-01T18:13:19.442Z,10.63
2019-03-01T18:15:49.701Z,10.97
2019-03-01T18:18:39.288Z,11.35
2019-03-01T18:21:10.194Z,6.78
2019-03-01T18:23:59.170Z,6.20
2019-03-01T18:29:34.824Z,6.90
2019-03-01T18:32:07.014Z,6.80
2019-03-01T18:34:41.368Z,11.63
2019-03-01T18:37:19.222Z,5.60
2019-03-01T18:39:42.292Z,9.65
2019-03-01T18:42:11.849Z,11.63
2019-03-01T18:45:03.604Z,6.30
2019-03-01T18:47:37.447Z,7.00
2019-03-01T18:50:12.644Z,8.60
2019-03-01T18:52:42.227Z,7.70
2019-03-01T18:55:13.713Z,7.97
2019-03-01T18:58:02.399Z,7.35
2019-03-01T19:00:35.640Z,11.65
2019-03-01T19:03:24.375Z,7.43
2019-03-01T19:05:53.882Z,7.53
2019-03-01T19:08:25.093Z,6.27
2019-03-01T19:10:54.640Z,6.07
2019-03-01T19:13:25.628Z,5.55
2019-03-01T19:16:00.987Z,6.37
2019-03-01T19:18:32.142Z,7.27
2019-03-01T19:21:01.643Z,5.37
2019-03-01T19:23:33.345Z,5.90
2019-03-01T19:26:23.392Z,5.63
2019-03-01T19:28:52.910Z,3.83
2019-03-01T19:31:24.505Z,8.67
2019-03-01T19:33:59.007Z,12.93
2019-03-01T19:36:28.571Z,5.70
2019-03-01T19:39:17.116Z,5.22
2019-03-01T19:41:46.686Z,5.47
2019-03-01T19:44:16.264Z,10.33
2019-03-01T19:46:47.698Z,6.60
2019-03-01T19:49:36.155Z,3.75
2019-03-01T19:52:05.699Z,8.80
2019-03-01T19:54:35.718Z,5.00
2019-03-01T19:57:11.942Z,4.20
2019-03-01T19:59:41.657Z,8.90
2019-03-01T20:02:11.314Z,14.67
2019-03-01T20:04:40.846Z,8.50
2019-03-01T20:07:29.705Z,3.63
2019-03-01T20:09:59.298Z,9.03
2019-03-01T20:12:28.974Z,6.83
2019-03-01T20:14:58.467Z,10.43
2019-03-01T20:17:30.311Z,3.70
2019-03-01T20:20:19.103Z,8.20
2019-03-01T20:22:50.465Z,10.15
2019-03-01T20:25:39.970Z,11.23
2019-03-01T20:28:11.488Z,6.83
2019-03-01T20:31:01.515Z,5.77
2019-03-01T20:33:36.365Z,5.30
2019-03-01T20:36:05.870Z,4.53
2019-03-01T20:38:36.995Z,12.23
2019-03-01T20:41:25.755Z,9.30
2019-03-01T20:43:55.296Z,8.30
2019-03-01T20:49:43.672Z,7.33
2019-03-01T20:52:13.176Z,12.80
2019-03-01T20:54:42.743Z,7.25
2019-03-01T20:57:12.248Z,8.27
2019-03-01T21:00:01.928Z,8.90
2019-03-01T21:02:51.782Z,7.15
2019-03-01T21:05:24.879Z,8.40
2019-03-01T21:08:11.785Z,10.20
2019-03-01T21:10:41.394Z,7.60
2019-03-01T21:13:12.495Z,8.20
2019-03-01T21:16:01.317Z,8.20
2019-03-01T21:18:34.067Z,6.45
2019-03-01T21:21:21.196Z,11.07
2019-03-01T21:23:51.050Z,18.12
2019-03-01T21:26:41.199Z,7.70
2019-03-01T21:32:05.406Z,6.87
2019-03-01T21:34:54.206Z,6.35
2019-03-01T21:37:23.746Z,4.00
2019-03-01T21:39:55.627Z,3.53
2019-03-01T21:42:33.623Z,6.43
2019-03-01T21:47:57.577Z,5.40
2019-03-01T21:50:27.067Z,6.23
2019-03-01T21:52:56.611Z,5.57
2019-03-01T21:55:28.518Z,9.63
2019-03-01T21:58:16.556Z,8.13
2019-03-01T22:00:46.156Z,6.20
2019-03-01T22:03:15.852Z,6.33
2019-03-01T22:05:48.613Z,4.90
2019-03-01T22:08:49.801Z,10.30
2019-03-01T22:11:20.945Z,4.80
2019-03-01T22:13:56.985Z,8.90
2019-03-01T22:16:26.508Z,9.10
2019-03-01T22:18:58.643Z,7.03
2019-03-01T22:21:46.441Z,5.20
2019-03-01T22:24:35.051Z,6.00
2019-03-01T22:27:04.589Z,7.73
2019-03-01T22:29:34.148Z,5.65
2019-03-01T22:32:03.662Z,6.53
2019-03-01T22:34:33.155Z,4.12
2019-03-01T22:37:02.814Z,7.22
2019-03-01T22:39:32.307Z,5.10
2019-03-01T22:45:15.590Z,6.90
2019-03-01T22:47:45.117Z,6.58
2019-03-01T22:50:15.325Z,10.53
2019-03-01T22:52:44.924Z,5.13
2019-03-01T22:55:15.241Z,4.70
2019-03-01T22:57:45.185Z,4.27
2019-03-01T23:01:33.548Z,12.10
2019-03-01T23:04:04.855Z,4.97
2019-03-01T23:06:34.364Z,7.07
2019-03-01T23:12:04.711Z,5.83
2019-03-01T23:14:38.324Z,5.13
2019-03-01T23:17:07.875Z,8.13
2019-03-01T23:19:39.167Z,3.50
2019-03-01T23:22:27.802Z,5.37
2019-03-01T23:24:57.284Z,4.93
2019-03-01T23:27:28.501Z,14.07
2019-03-01T23:30:17.420Z,8.03
2019-03-01T23:32:48.864Z,4.50
2019-03-01T23:38:05.408Z,7.33
2019-03-01T23:40:35.863Z,6.30
2019-03-01T23:43:11.867Z,5.33
2019-03-01T23:45:42.486Z,6.73
2019-03-01T23:48:31.796Z,5.77
2019-03-01T23:51:01.331Z,6.30
2019-03-01T23:53:34.048Z,5.93
2019-03-01T23:56:07.311Z,12.10
2019-03-01T23:58:36.886Z,10.40
